Southern Baltic, Poland
Current Conditions -  °F | °C
As of 4:00 PM on Saturday 22 Nov 2014 (Local Time) from EPGD Reporting Station
Broken Clouds Broken Clouds  
Wind Chill: 43°   Ceiling: 3600
Heat Index: 43°   Visibility: 5mi
Dew Point: 41°   Wind: 3mph
Humidity: 93%   Direction: 270°W
Pressure: 30.33"   Gusts: NA
Location:  55.25°N, 18.25°E
Report Text: EPGD 221400Z 27003KT 240V300 8000 SCT009 BKN036 06/05 Q1027
Loading
Personal Weather Stations






























Interactive Weather Map New forecast layout! Learn more

10-Day Weather Forecast

Advertisements
Track Severe Weather on mobile